sensor_id;sensor_type;location;lat;lon;timestamp;P1;durP1;ratioP1;P2;durP2;ratioP2
37201;SDS011;37799;52.390;6.136;2023-10-31T00:00:03;7.20;;;2.78;;
37201;SDS011;37799;52.390;6.136;2023-10-31T00:02:28;5.03;;;1.40;;
37201;SDS011;37799;52.390;6.136;2023-10-31T00:04:54;5.80;;;0.77;;
37201;SDS011;37799;52.390;6.136;2023-10-31T00:07:19;1.35;;;0.20;;
37201;SDS011;37799;52.390;6.136;2023-10-31T00:09:44;0.95;;;0.25;;
37201;SDS011;37799;52.390;6.136;2023-10-31T00:12:09;0.10;;;0.00;;
37201;SDS011;37799;52.390;6.136;2023-10-31T00:14:35;0.20;;;0.00;;
37201;SDS011;37799;52.390;6.136;2023-10-31T00:17:00;1.73;;;0.10;;
37201;SDS011;37799;52.390;6.136;2023-10-31T00:19:25;0.88;;;0.00;;
37201;SDS011;37799;52.390;6.136;2023-10-31T00:21:51;0.20;;;0.00;;
37201;SDS011;37799;52.390;6.136;2023-10-31T00:24:16;2.25;;;0.10;;
37201;SDS011;37799;52.390;6.136;2023-10-31T00:26:41;0.00;;;0.00;;
37201;SDS011;37799;52.390;6.136;2023-10-31T00:29:06;0.38;;;0.00;;
37201;SDS011;37799;52.390;6.136;2023-10-31T00:31:32;1.23;;;0.10;;
37201;SDS011;37799;52.390;6.136;2023-10-31T00:33:59;2.05;;;0.10;;
37201;SDS011;37799;52.390;6.136;2023-10-31T00:36:25;0.98;;;0.00;;
37201;SDS011;37799;52.390;6.136;2023-10-31T00:38:50;0.45;;;0.10;;
37201;SDS011;37799;52.390;6.136;2023-10-31T00:41:16;1.13;;;0.20;;
37201;SDS011;37799;52.390;6.136;2023-10-31T00:43:41;1.08;;;0.08;;
37201;SDS011;37799;52.390;6.136;2023-10-31T00:46:06;0.50;;;0.10;;
37201;SDS011;37799;52.390;6.136;2023-10-31T00:48:31;0.22;;;0.03;;
37201;SDS011;37799;52.390;6.136;2023-10-31T00:51:01;2.42;;;0.05;;
37201;SDS011;37799;52.390;6.136;2023-10-31T00:53:28;1.52;;;0.10;;
37201;SDS011;37799;52.390;6.136;2023-10-31T00:55:53;1.70;;;0.00;;
37201;SDS011;37799;52.390;6.136;2023-10-31T00:58:18;1.83;;;0.13;;
37201;SDS011;37799;52.390;6.136;2023-10-31T01:00:44;0.20;;;0.00;;
37201;SDS011;37799;52.390;6.136;2023-10-31T01:03:09;0.45;;;0.10;;
37201;SDS011;37799;52.390;6.136;2023-10-31T01:05:34;1.58;;;0.10;;
37201;SDS011;37799;52.390;6.136;2023-10-31T01:08:00;0.15;;;0.00;;
37201;SDS011;37799;52.390;6.136;2023-10-31T01:10:25;0.88;;;0.10;;
37201;SDS011;37799;52.390;6.136;2023-10-31T01:12:50;1.90;;;0.10;;
37201;SDS011;37799;52.390;6.136;2023-10-31T01:15:15;2.50;;;0.47;;
37201;SDS011;37799;52.390;6.136;2023-10-31T01:17:41;1.67;;;0.10;;
37201;SDS011;37799;52.390;6.136;2023-10-31T01:20:06;2.05;;;0.20;;
37201;SDS011;37799;52.390;6.136;2023-10-31T01:22:32;3.03;;;0.15;;
37201;SDS011;37799;52.390;6.136;2023-10-31T01:24:57;0.68;;;0.00;;
37201;SDS011;37799;52.390;6.136;2023-10-31T01:27:23;0.70;;;0.60;;
37201;SDS011;37799;52.390;6.136;2023-10-31T01:29:48;2.80;;;0.10;;
37201;SDS011;37799;52.390;6.136;2023-10-31T01:32:13;4.15;;;0.13;;
37201;SDS011;37799;52.390;6.136;2023-10-31T01:34:39;4.10;;;0.35;;
37201;SDS011;37799;52.390;6.136;2023-10-31T01:37:04;0.77;;;0.10;;
37201;SDS011;37799;52.390;6.136;2023-10-31T01:39:29;3.25;;;0.20;;
37201;SDS011;37799;52.390;6.136;2023-10-31T01:41:55;2.10;;;0.30;;
37201;SDS011;37799;52.390;6.136;2023-10-31T01:44:20;1.60;;;0.20;;
37201;SDS011;37799;52.390;6.136;2023-10-31T01:46:46;1.73;;;0.20;;
37201;SDS011;37799;52.390;6.136;2023-10-31T01:49:11;1.25;;;0.20;;
37201;SDS011;37799;52.390;6.136;2023-10-31T01:51:38;1.80;;;0.20;;
37201;SDS011;37799;52.390;6.136;2023-10-31T01:54:03;2.45;;;0.20;;
37201;SDS011;37799;52.390;6.136;2023-10-31T01:56:29;2.15;;;0.25;;
37201;SDS011;37799;52.390;6.136;2023-10-31T01:58:54;6.18;;;0.50;;
37201;SDS011;37799;52.390;6.136;2023-10-31T02:01:19;5.78;;;0.32;;
37201;SDS011;37799;52.390;6.136;2023-10-31T02:03:45;3.53;;;0.50;;
37201;SDS011;37799;52.390;6.136;2023-10-31T02:06:10;1.65;;;0.30;;
37201;SDS011;37799;52.390;6.136;2023-10-31T02:08:35;3.65;;;0.40;;
37201;SDS011;37799;52.390;6.136;2023-10-31T02:11:01;3.42;;;0.32;;
37201;SDS011;37799;52.390;6.136;2023-10-31T02:13:26;3.42;;;0.47;;
37201;SDS011;37799;52.390;6.136;2023-10-31T02:15:51;2.70;;;0.60;;
37201;SDS011;37799;52.390;6.136;2023-10-31T02:18:17;3.10;;;0.50;;
37201;SDS011;37799;52.390;6.136;2023-10-31T02:20:42;3.92;;;0.50;;
37201;SDS011;37799;52.390;6.136;2023-10-31T02:23:08;4.82;;;0.50;;
37201;SDS011;37799;52.390;6.136;2023-10-31T02:25:34;2.40;;;0.50;;
37201;SDS011;37799;52.390;6.136;2023-10-31T02:27:59;3.72;;;0.50;;
37201;SDS011;37799;52.390;6.136;2023-10-31T02:30:24;5.25;;;0.40;;
37201;SDS011;37799;52.390;6.136;2023-10-31T02:32:50;3.83;;;0.57;;
37201;SDS011;37799;52.390;6.136;2023-10-31T02:35:16;3.90;;;0.75;;
37201;SDS011;37799;52.390;6.136;2023-10-31T02:37:43;4.00;;;0.30;;
37201;SDS011;37799;52.390;6.136;2023-10-31T02:40:08;5.47;;;0.65;;
37201;SDS011;37799;52.390;6.136;2023-10-31T02:42:34;4.78;;;0.60;;
37201;SDS011;37799;52.390;6.136;2023-10-31T02:45:00;6.43;;;0.63;;
37201;SDS011;37799;52.390;6.136;2023-10-31T02:47:25;3.08;;;0.63;;
37201;SDS011;37799;52.390;6.136;2023-10-31T02:49:50;5.30;;;1.30;;
37201;SDS011;37799;52.390;6.136;2023-10-31T02:52:16;3.85;;;0.80;;
37201;SDS011;37799;52.390;6.136;2023-10-31T02:54:41;5.72;;;1.08;;
37201;SDS011;37799;52.390;6.136;2023-10-31T02:57:06;6.05;;;1.10;;
37201;SDS011;37799;52.390;6.136;2023-10-31T02:59:32;4.32;;;0.98;;
37201;SDS011;37799;52.390;6.136;2023-10-31T03:01:57;5.68;;;1.42;;
37201;SDS011;37799;52.390;6.136;2023-10-31T03:04:22;9.90;;;1.83;;
37201;SDS011;37799;52.390;6.136;2023-10-31T03:06:48;6.72;;;1.38;;
37201;SDS011;37799;52.390;6.136;2023-10-31T03:09:13;5.38;;;1.70;;
37201;SDS011;37799;52.390;6.136;2023-10-31T03:11:39;8.90;;;2.03;;
37201;SDS011;37799;52.390;6.136;2023-10-31T03:14:04;8.73;;;2.50;;
37201;SDS011;37799;52.390;6.136;2023-10-31T03:16:29;8.23;;;2.88;;
37201;SDS011;37799;52.390;6.136;2023-10-31T03:18:55;9.73;;;2.72;;
37201;SDS011;37799;52.390;6.136;2023-10-31T03:21:21;9.52;;;3.30;;
37201;SDS011;37799;52.390;6.136;2023-10-31T03:23:47;8.27;;;2.83;;
37201;SDS011;37799;52.390;6.136;2023-10-31T03:26:14;8.85;;;2.83;;
37201;SDS011;37799;52.390;6.136;2023-10-31T03:28:40;8.57;;;2.38;;
37201;SDS011;37799;52.390;6.136;2023-10-31T03:31:05;10.60;;;3.15;;
37201;SDS011;37799;52.390;6.136;2023-10-31T03:33:30;8.85;;;2.97;;
37201;SDS011;37799;52.390;6.136;2023-10-31T03:35:56;7.65;;;2.78;;
37201;SDS011;37799;52.390;6.136;2023-10-31T03:38:22;9.75;;;3.38;;
37201;SDS011;37799;52.390;6.136;2023-10-31T03:40:47;9.32;;;2.88;;
37201;SDS011;37799;52.390;6.136;2023-10-31T03:43:12;11.23;;;2.97;;
37201;SDS011;37799;52.390;6.136;2023-10-31T03:45:38;8.50;;;3.13;;
37201;SDS011;37799;52.390;6.136;2023-10-31T03:48:03;7.38;;;2.42;;
37201;SDS011;37799;52.390;6.136;2023-10-31T03:50:29;8.23;;;2.90;;
37201;SDS011;37799;52.390;6.136;2023-10-31T03:52:54;10.90;;;3.75;;
37201;SDS011;37799;52.390;6.136;2023-10-31T03:55:19;10.15;;;3.15;;
37201;SDS011;37799;52.390;6.136;2023-10-31T03:57:45;9.77;;;3.55;;
37201;SDS011;37799;52.390;6.136;2023-10-31T04:00:10;8.68;;;2.63;;
37201;SDS011;37799;52.390;6.136;2023-10-31T04:02:36;10.75;;;2.92;;
37201;SDS011;37799;52.390;6.136;2023-10-31T04:05:02;8.95;;;3.03;;
37201;SDS011;37799;52.390;6.136;2023-10-31T04:07:27;8.63;;;2.95;;
37201;SDS011;37799;52.390;6.136;2023-10-31T04:09:52;8.73;;;2.47;;
37201;SDS011;37799;52.390;6.136;2023-10-31T04:12:17;8.73;;;3.03;;
37201;SDS011;37799;52.390;6.136;2023-10-31T04:14:43;7.07;;;2.40;;
37201;SDS011;37799;52.390;6.136;2023-10-31T04:17:08;10.30;;;2.40;;
37201;SDS011;37799;52.390;6.136;2023-10-31T04:19:36;6.60;;;2.58;;
37201;SDS011;37799;52.390;6.136;2023-10-31T04:22:01;7.80;;;2.00;;
37201;SDS011;37799;52.390;6.136;2023-10-31T04:24:27;7.20;;;2.30;;
37201;SDS011;37799;52.390;6.136;2023-10-31T04:26:52;6.65;;;2.00;;
37201;SDS011;37799;52.390;6.136;2023-10-31T04:29:17;5.82;;;1.77;;
37201;SDS011;37799;52.390;6.136;2023-10-31T04:31:43;5.70;;;1.80;;
37201;SDS011;37799;52.390;6.136;2023-10-31T04:34:08;4.65;;;1.38;;
37201;SDS011;37799;52.390;6.136;2023-10-31T04:36:33;6.25;;;1.67;;
37201;SDS011;37799;52.390;6.136;2023-10-31T04:38:59;5.50;;;1.70;;
37201;SDS011;37799;52.390;6.136;2023-10-31T04:41:24;4.85;;;1.38;;
37201;SDS011;37799;52.390;6.136;2023-10-31T04:43:49;5.82;;;1.40;;
37201;SDS011;37799;52.390;6.136;2023-10-31T04:46:14;5.85;;;1.42;;
37201;SDS011;37799;52.390;6.136;2023-10-31T04:48:40;4.97;;;1.58;;
37201;SDS011;37799;52.390;6.136;2023-10-31T04:51:05;6.18;;;1.80;;
37201;SDS011;37799;52.390;6.136;2023-10-31T04:53:31;6.85;;;1.63;;
37201;SDS011;37799;52.390;6.136;2023-10-31T04:55:58;5.35;;;1.35;;
37201;SDS011;37799;52.390;6.136;2023-10-31T04:58:23;4.20;;;1.17;;
37201;SDS011;37799;52.390;6.136;2023-10-31T05:00:49;3.67;;;1.02;;
37201;SDS011;37799;52.390;6.136;2023-10-31T05:03:14;3.90;;;0.90;;
37201;SDS011;37799;52.390;6.136;2023-10-31T05:05:39;6.10;;;1.23;;
37201;SDS011;37799;52.390;6.136;2023-10-31T05:08:05;5.05;;;0.93;;
37201;SDS011;37799;52.390;6.136;2023-10-31T05:10:30;3.42;;;0.77;;
37201;SDS011;37799;52.390;6.136;2023-10-31T05:12:55;3.40;;;0.80;;
37201;SDS011;37799;52.390;6.136;2023-10-31T05:15:21;4.32;;;1.00;;
37201;SDS011;37799;52.390;6.136;2023-10-31T05:17:47;6.22;;;0.93;;
37201;SDS011;37799;52.390;6.136;2023-10-31T05:20:12;3.92;;;0.60;;
37201;SDS011;37799;52.390;6.136;2023-10-31T05:22:38;3.97;;;0.73;;
37201;SDS011;37799;52.390;6.136;2023-10-31T05:25:05;3.72;;;0.80;;
37201;SDS011;37799;52.390;6.136;2023-10-31T05:27:30;3.55;;;0.57;;
37201;SDS011;37799;52.390;6.136;2023-10-31T05:29:56;3.67;;;0.45;;
37201;SDS011;37799;52.390;6.136;2023-10-31T05:32:21;3.13;;;0.60;;
37201;SDS011;37799;52.390;6.136;2023-10-31T05:34:47;2.00;;;0.30;;
37201;SDS011;37799;52.390;6.136;2023-10-31T05:37:12;1.85;;;0.30;;
37201;SDS011;37799;52.390;6.136;2023-10-31T05:39:37;1.48;;;0.25;;
37201;SDS011;37799;52.390;6.136;2023-10-31T05:42:03;2.83;;;0.50;;
37201;SDS011;37799;52.390;6.136;2023-10-31T05:44:28;2.58;;;0.20;;
37201;SDS011;37799;52.390;6.136;2023-10-31T05:46:54;1.60;;;0.20;;
37201;SDS011;37799;52.390;6.136;2023-10-31T05:49:19;2.30;;;0.35;;
37201;SDS011;37799;52.390;6.136;2023-10-31T05:51:49;3.42;;;0.30;;
37201;SDS011;37799;52.390;6.136;2023-10-31T05:54:15;1.13;;;0.40;;
37201;SDS011;37799;52.390;6.136;2023-10-31T05:56:40;1.85;;;0.10;;
37201;SDS011;37799;52.390;6.136;2023-10-31T05:59:07;1.38;;;0.10;;
37201;SDS011;37799;52.390;6.136;2023-10-31T06:01:32;1.15;;;0.10;;
37201;SDS011;37799;52.390;6.136;2023-10-31T06:03:57;1.30;;;0.10;;
37201;SDS011;37799;52.390;6.136;2023-10-31T06:06:23;1.17;;;0.10;;
37201;SDS011;37799;52.390;6.136;2023-10-31T06:08:48;0.82;;;0.10;;
37201;SDS011;37799;52.390;6.136;2023-10-31T06:11:13;0.88;;;0.10;;
37201;SDS011;37799;52.390;6.136;2023-10-31T06:13:39;1.55;;;0.10;;
37201;SDS011;37799;52.390;6.136;2023-10-31T06:16:04;0.80;;;0.10;;
37201;SDS011;37799;52.390;6.136;2023-10-31T06:18:30;0.70;;;0.22;;
37201;SDS011;37799;52.390;6.136;2023-10-31T06:20:55;0.70;;;0.10;;
37201;SDS011;37799;52.390;6.136;2023-10-31T06:23:21;0.65;;;0.10;;
37201;SDS011;37799;52.390;6.136;2023-10-31T06:25:46;1.65;;;0.20;;
37201;SDS011;37799;52.390;6.136;2023-10-31T06:28:11;0.95;;;0.10;;
37201;SDS011;37799;52.390;6.136;2023-10-31T06:30:37;1.98;;;0.20;;
37201;SDS011;37799;52.390;6.136;2023-10-31T06:33:02;1.15;;;0.15;;
37201;SDS011;37799;52.390;6.136;2023-10-31T06:35:27;3.38;;;0.28;;
37201;SDS011;37799;52.390;6.136;2023-10-31T06:37:54;0.88;;;0.20;;
37201;SDS011;37799;52.390;6.136;2023-10-31T06:40:21;2.75;;;0.20;;
37201;SDS011;37799;52.390;6.136;2023-10-31T06:42:46;2.90;;;0.22;;
37201;SDS011;37799;52.390;6.136;2023-10-31T06:45:12;1.60;;;0.10;;
37201;SDS011;37799;52.390;6.136;2023-10-31T06:47:37;3.45;;;0.10;;
37201;SDS011;37799;52.390;6.136;2023-10-31T06:50:03;0.75;;;0.10;;
37201;SDS011;37799;52.390;6.136;2023-10-31T06:52:28;2.17;;;0.20;;
37201;SDS011;37799;52.390;6.136;2023-10-31T06:54:53;1.75;;;0.22;;
37201;SDS011;37799;52.390;6.136;2023-10-31T06:57:19;1.25;;;0.10;;
37201;SDS011;37799;52.390;6.136;2023-10-31T06:59:44;0.88;;;0.05;;
37201;SDS011;37799;52.390;6.136;2023-10-31T07:02:09;0.88;;;0.10;;
37201;SDS011;37799;52.390;6.136;2023-10-31T07:04:35;2.63;;;0.20;;
37201;SDS011;37799;52.390;6.136;2023-10-31T07:07:00;0.65;;;0.08;;
37201;SDS011;37799;52.390;6.136;2023-10-31T07:09:26;1.13;;;0.10;;
37201;SDS011;37799;52.390;6.136;2023-10-31T07:11:51;0.65;;;0.10;;
37201;SDS011;37799;52.390;6.136;2023-10-31T07:14:17;1.20;;;0.20;;
37201;SDS011;37799;52.390;6.136;2023-10-31T07:16:42;1.88;;;0.25;;
37201;SDS011;37799;52.390;6.136;2023-10-31T07:19:09;1.13;;;0.20;;
37201;SDS011;37799;52.390;6.136;2023-10-31T07:21:35;0.80;;;0.20;;
37201;SDS011;37799;52.390;6.136;2023-10-31T07:24:00;2.33;;;0.38;;
37201;SDS011;37799;52.390;6.136;2023-10-31T07:26:26;3.28;;;0.45;;
37201;SDS011;37799;52.390;6.136;2023-10-31T07:28:52;2.10;;;0.40;;
37201;SDS011;37799;52.390;6.136;2023-10-31T07:31:17;3.10;;;0.40;;
37201;SDS011;37799;52.390;6.136;2023-10-31T07:33:43;3.17;;;0.30;;
37201;SDS011;37799;52.390;6.136;2023-10-31T07:36:10;2.58;;;0.40;;
37201;SDS011;37799;52.390;6.136;2023-10-31T07:38:35;3.05;;;0.52;;
37201;SDS011;37799;52.390;6.136;2023-10-31T07:41:00;1.98;;;0.38;;
37201;SDS011;37799;52.390;6.136;2023-10-31T07:43:26;3.00;;;0.50;;
37201;SDS011;37799;52.390;6.136;2023-10-31T07:45:51;2.95;;;0.47;;
37201;SDS011;37799;52.390;6.136;2023-10-31T07:48:16;3.17;;;0.70;;
37201;SDS011;37799;52.390;6.136;2023-10-31T07:50:41;3.25;;;0.55;;
37201;SDS011;37799;52.390;6.136;2023-10-31T07:53:07;2.80;;;0.60;;
37201;SDS011;37799;52.390;6.136;2023-10-31T07:55:32;2.63;;;0.63;;
37201;SDS011;37799;52.390;6.136;2023-10-31T07:57:57;4.40;;;0.98;;
37201;SDS011;37799;52.390;6.136;2023-10-31T08:00:23;3.72;;;0.70;;
37201;SDS011;37799;52.390;6.136;2023-10-31T08:02:48;3.38;;;0.80;;
37201;SDS011;37799;52.390;6.136;2023-10-31T08:05:13;3.67;;;0.82;;
37201;SDS011;37799;52.390;6.136;2023-10-31T08:07:39;4.45;;;0.98;;
37201;SDS011;37799;52.390;6.136;2023-10-31T08:10:04;3.95;;;1.00;;
37201;SDS011;37799;52.390;6.136;2023-10-31T08:12:30;4.18;;;1.10;;
37201;SDS011;37799;52.390;6.136;2023-10-31T08:14:55;5.85;;;1.10;;
37201;SDS011;37799;52.390;6.136;2023-10-31T08:17:21;5.60;;;1.08;;
37201;SDS011;37799;52.390;6.136;2023-10-31T08:19:46;5.43;;;1.20;;
37201;SDS011;37799;52.390;6.136;2023-10-31T08:22:13;3.83;;;0.95;;
37201;SDS011;37799;52.390;6.136;2023-10-31T08:24:38;8.10;;;1.30;;
37201;SDS011;37799;52.390;6.136;2023-10-31T08:27:04;6.00;;;1.65;;
37201;SDS011;37799;52.390;6.136;2023-10-31T08:29:30;5.55;;;1.38;;
37201;SDS011;37799;52.390;6.136;2023-10-31T08:31:55;4.32;;;1.38;;
37201;SDS011;37799;52.390;6.136;2023-10-31T08:34:21;5.22;;;1.45;;
37201;SDS011;37799;52.390;6.136;2023-10-31T08:36:46;15.68;;;2.55;;
37201;SDS011;37799;52.390;6.136;2023-10-31T08:39:11;5.80;;;2.00;;
37201;SDS011;37799;52.390;6.136;2023-10-31T08:41:37;6.47;;;1.90;;
37201;SDS011;37799;52.390;6.136;2023-10-31T08:44:17;6.88;;;2.22;;
37201;SDS011;37799;52.390;6.136;2023-10-31T08:46:43;8.10;;;2.08;;
37201;SDS011;37799;52.390;6.136;2023-10-31T08:49:08;7.90;;;2.58;;
37201;SDS011;37799;52.390;6.136;2023-10-31T08:51:33;6.50;;;2.60;;
37201;SDS011;37799;52.390;6.136;2023-10-31T08:53:59;8.18;;;2.60;;
37201;SDS011;37799;52.390;6.136;2023-10-31T08:56:24;7.80;;;2.78;;
37201;SDS011;37799;52.390;6.136;2023-10-31T08:58:49;7.88;;;2.67;;
37201;SDS011;37799;52.390;6.136;2023-10-31T09:01:14;7.72;;;3.20;;
37201;SDS011;37799;52.390;6.136;2023-10-31T09:03:40;8.30;;;3.30;;
37201;SDS011;37799;52.390;6.136;2023-10-31T09:06:05;10.07;;;4.30;;
37201;SDS011;37799;52.390;6.136;2023-10-31T09:08:30;10.10;;;4.18;;
37201;SDS011;37799;52.390;6.136;2023-10-31T09:10:56;10.25;;;3.38;;
37201;SDS011;37799;52.390;6.136;2023-10-31T09:13:22;9.93;;;3.67;;
37201;SDS011;37799;52.390;6.136;2023-10-31T09:15:47;9.85;;;3.47;;
37201;SDS011;37799;52.390;6.136;2023-10-31T09:18:14;10.95;;;4.30;;
37201;SDS011;37799;52.390;6.136;2023-10-31T09:20:40;7.88;;;3.15;;
37201;SDS011;37799;52.390;6.136;2023-10-31T09:23:05;6.68;;;2.60;;
37201;SDS011;37799;52.390;6.136;2023-10-31T09:25:30;5.65;;;2.28;;
37201;SDS011;37799;52.390;6.136;2023-10-31T09:27:56;6.18;;;2.20;;
37201;SDS011;37799;52.390;6.136;2023-10-31T09:30:23;8.48;;;3.15;;
37201;SDS011;37799;52.390;6.136;2023-10-31T09:32:49;8.27;;;2.22;;
37201;SDS011;37799;52.390;6.136;2023-10-31T09:35:14;4.97;;;2.00;;
37201;SDS011;37799;52.390;6.136;2023-10-31T09:37:40;9.10;;;2.20;;
37201;SDS011;37799;52.390;6.136;2023-10-31T09:40:06;8.68;;;2.13;;
37201;SDS011;37799;52.390;6.136;2023-10-31T09:42:32;7.22;;;2.08;;
37201;SDS011;37799;52.390;6.136;2023-10-31T09:44:57;5.88;;;1.95;;
37201;SDS011;37799;52.390;6.136;2023-10-31T09:47:23;7.00;;;2.40;;
37201;SDS011;37799;52.390;6.136;2023-10-31T09:49:49;6.93;;;2.20;;
37201;SDS011;37799;52.390;6.136;2023-10-31T09:52:14;8.98;;;2.03;;
37201;SDS011;37799;52.390;6.136;2023-10-31T09:54:40;7.22;;;1.73;;
37201;SDS011;37799;52.390;6.136;2023-10-31T09:57:06;4.43;;;1.70;;
37201;SDS011;37799;52.390;6.136;2023-10-31T09:59:32;5.78;;;1.45;;
37201;SDS011;37799;52.390;6.136;2023-10-31T10:01:57;6.20;;;1.50;;
37201;SDS011;37799;52.390;6.136;2023-10-31T10:04:22;3.53;;;0.75;;
37201;SDS011;37799;52.390;6.136;2023-10-31T10:06:52;3.38;;;0.60;;
37201;SDS011;37799;52.390;6.136;2023-10-31T10:09:23;3.72;;;0.60;;
37201;SDS011;37799;52.390;6.136;2023-10-31T10:11:48;5.57;;;0.90;;
37201;SDS011;37799;52.390;6.136;2023-10-31T10:14:14;2.00;;;0.60;;
37201;SDS011;37799;52.390;6.136;2023-10-31T10:16:41;1.92;;;0.40;;
37201;SDS011;37799;52.390;6.136;2023-10-31T10:19:16;2.65;;;0.40;;
37201;SDS011;37799;52.390;6.136;2023-10-31T10:21:46;1.77;;;0.25;;
37201;SDS011;37799;52.390;6.136;2023-10-31T10:24:23;3.50;;;0.40;;
37201;SDS011;37799;52.390;6.136;2023-10-31T10:26:49;2.83;;;0.30;;
37201;SDS011;37799;52.390;6.136;2023-10-31T10:29:15;1.30;;;0.25;;
37201;SDS011;37799;52.390;6.136;2023-10-31T10:31:41;2.13;;;0.20;;
37201;SDS011;37799;52.390;6.136;2023-10-31T10:34:07;3.38;;;0.40;;
37201;SDS011;37799;52.390;6.136;2023-10-31T10:36:33;5.65;;;0.30;;
37201;SDS011;37799;52.390;6.136;2023-10-31T10:38:59;1.27;;;0.20;;
37201;SDS011;37799;52.390;6.136;2023-10-31T10:41:26;3.72;;;0.20;;
37201;SDS011;37799;52.390;6.136;2023-10-31T10:43:55;1.10;;;0.10;;
37201;SDS011;37799;52.390;6.136;2023-10-31T10:46:35;2.17;;;0.68;;
37201;SDS011;37799;52.390;6.136;2023-10-31T10:49:05;3.80;;;0.30;;
37201;SDS011;37799;52.390;6.136;2023-10-31T10:54:18;1.20;;;0.38;;
37201;SDS011;37799;52.390;6.136;2023-10-31T10:56:53;1.05;;;0.22;;
37201;SDS011;37799;52.390;6.136;2023-10-31T10:59:27;4.15;;;0.20;;
37201;SDS011;37799;52.390;6.136;2023-10-31T11:02:01;1.77;;;0.10;;
37201;SDS011;37799;52.390;6.136;2023-10-31T11:04:29;0.63;;;0.10;;
37201;SDS011;37799;52.390;6.136;2023-10-31T11:06:56;0.45;;;0.13;;
37201;SDS011;37799;52.390;6.136;2023-10-31T11:09:21;1.67;;;0.10;;
37201;SDS011;37799;52.390;6.136;2023-10-31T11:11:48;2.88;;;0.10;;
37201;SDS011;37799;52.390;6.136;2023-10-31T11:14:16;1.38;;;0.22;;
37201;SDS011;37799;52.390;6.136;2023-10-31T11:16:43;1.02;;;0.20;;
37201;SDS011;37799;52.390;6.136;2023-10-31T11:19:12;1.85;;;0.20;;
37201;SDS011;37799;52.390;6.136;2023-10-31T11:21:52;1.05;;;0.08;;
37201;SDS011;37799;52.390;6.136;2023-10-31T11:24:18;1.13;;;0.10;;
37201;SDS011;37799;52.390;6.136;2023-10-31T11:26:50;0.98;;;0.10;;
37201;SDS011;37799;52.390;6.136;2023-10-31T11:29:16;2.00;;;0.10;;
37201;SDS011;37799;52.390;6.136;2023-10-31T11:31:42;1.58;;;0.20;;
37201;SDS011;37799;52.390;6.136;2023-10-31T11:34:07;2.60;;;0.30;;
37201;SDS011;37799;52.390;6.136;2023-10-31T11:36:33;0.75;;;0.10;;
37201;SDS011;37799;52.390;6.136;2023-10-31T11:39:13;2.00;;;0.10;;
37201;SDS011;37799;52.390;6.136;2023-10-31T11:41:40;1.48;;;0.10;;
37201;SDS011;37799;52.390;6.136;2023-10-31T11:44:13;2.88;;;0.10;;
37201;SDS011;37799;52.390;6.136;2023-10-31T11:46:40;0.73;;;0.10;;
37201;SDS011;37799;52.390;6.136;2023-10-31T11:49:05;1.98;;;0.10;;
37201;SDS011;37799;52.390;6.136;2023-10-31T11:51:32;2.42;;;0.13;;
37201;SDS011;37799;52.390;6.136;2023-10-31T11:53:59;1.65;;;0.10;;
37201;SDS011;37799;52.390;6.136;2023-10-31T11:56:26;2.50;;;0.05;;
37201;SDS011;37799;52.390;6.136;2023-10-31T11:58:58;0.90;;;0.08;;
37201;SDS011;37799;52.390;6.136;2023-10-31T12:01:26;1.27;;;0.10;;
37201;SDS011;37799;52.390;6.136;2023-10-31T12:03:52;1.67;;;0.20;;
37201;SDS011;37799;52.390;6.136;2023-10-31T12:06:17;1.55;;;0.20;;
37201;SDS011;37799;52.390;6.136;2023-10-31T12:08:45;1.30;;;0.20;;
37201;SDS011;37799;52.390;6.136;2023-10-31T12:11:13;1.02;;;0.10;;
37201;SDS011;37799;52.390;6.136;2023-10-31T12:13:42;1.10;;;0.10;;
37201;SDS011;37799;52.390;6.136;2023-10-31T12:16:16;1.73;;;0.17;;
37201;SDS011;37799;52.390;6.136;2023-10-31T12:18:42;1.15;;;0.20;;
37201;SDS011;37799;52.390;6.136;2023-10-31T12:21:08;2.05;;;0.30;;
37201;SDS011;37799;52.390;6.136;2023-10-31T12:23:35;4.57;;;0.20;;
37201;SDS011;37799;52.390;6.136;2023-10-31T12:26:01;1.45;;;0.10;;
37201;SDS011;37799;52.390;6.136;2023-10-31T12:28:27;0.70;;;0.10;;
37201;SDS011;37799;52.390;6.136;2023-10-31T12:30:53;2.03;;;0.20;;
37201;SDS011;37799;52.390;6.136;2023-10-31T12:33:21;4.80;;;0.28;;
37201;SDS011;37799;52.390;6.136;2023-10-31T12:35:47;3.22;;;0.10;;
37201;SDS011;37799;52.390;6.136;2023-10-31T12:38:14;3.83;;;0.15;;
37201;SDS011;37799;52.390;6.136;2023-10-31T12:40:40;1.42;;;0.10;;
37201;SDS011;37799;52.390;6.136;2023-10-31T12:43:07;3.92;;;0.50;;
37201;SDS011;37799;52.390;6.136;2023-10-31T12:45:33;2.15;;;0.20;;
37201;SDS011;37799;52.390;6.136;2023-10-31T12:50:32;3.38;;;0.40;;
37201;SDS011;37799;52.390;6.136;2023-10-31T12:52:59;0.98;;;0.10;;
37201;SDS011;37799;52.390;6.136;2023-10-31T12:55:26;1.55;;;0.30;;
37201;SDS011;37799;52.390;6.136;2023-10-31T12:57:52;2.88;;;0.15;;
37201;SDS011;37799;52.390;6.136;2023-10-31T13:00:19;2.13;;;0.08;;
37201;SDS011;37799;52.390;6.136;2023-10-31T13:02:52;1.27;;;0.15;;
37201;SDS011;37799;52.390;6.136;2023-10-31T13:05:24;2.78;;;0.30;;
37201;SDS011;37799;52.390;6.136;2023-10-31T13:07:51;2.50;;;0.10;;
37201;SDS011;37799;52.390;6.136;2023-10-31T13:10:21;2.92;;;0.20;;
37201;SDS011;37799;52.390;6.136;2023-10-31T13:12:47;2.45;;;0.25;;
37201;SDS011;37799;52.390;6.136;2023-10-31T13:15:14;2.35;;;0.10;;
37201;SDS011;37799;52.390;6.136;2023-10-31T13:17:43;2.47;;;0.30;;
37201;SDS011;37799;52.390;6.136;2023-10-31T13:20:09;1.35;;;0.13;;
37201;SDS011;37799;52.390;6.136;2023-10-31T13:22:40;3.55;;;0.20;;
37201;SDS011;37799;52.390;6.136;2023-10-31T13:25:06;2.67;;;0.28;;
37201;SDS011;37799;52.390;6.136;2023-10-31T13:27:35;1.95;;;0.10;;
37201;SDS011;37799;52.390;6.136;2023-10-31T13:30:01;0.98;;;0.10;;
37201;SDS011;37799;52.390;6.136;2023-10-31T13:32:26;2.00;;;0.08;;
37201;SDS011;37799;52.390;6.136;2023-10-31T13:34:51;1.88;;;0.20;;
37201;SDS011;37799;52.390;6.136;2023-10-31T13:37:17;0.90;;;0.00;;
37201;SDS011;37799;52.390;6.136;2023-10-31T13:39:42;3.05;;;0.20;;
37201;SDS011;37799;52.390;6.136;2023-10-31T13:42:08;2.40;;;0.22;;
37201;SDS011;37799;52.390;6.136;2023-10-31T13:44:35;3.78;;;0.20;;
37201;SDS011;37799;52.390;6.136;2023-10-31T13:47:00;2.97;;;0.40;;
37201;SDS011;37799;52.390;6.136;2023-10-31T13:49:26;1.83;;;0.20;;
37201;SDS011;37799;52.390;6.136;2023-10-31T13:51:51;1.65;;;0.20;;
37201;SDS011;37799;52.390;6.136;2023-10-31T13:54:16;1.52;;;0.20;;
37201;SDS011;37799;52.390;6.136;2023-10-31T13:56:42;3.00;;;0.43;;
37201;SDS011;37799;52.390;6.136;2023-10-31T13:59:07;4.03;;;0.20;;
37201;SDS011;37799;52.390;6.136;2023-10-31T14:01:32;2.10;;;0.20;;
37201;SDS011;37799;52.390;6.136;2023-10-31T14:03:58;0.82;;;0.15;;
37201;SDS011;37799;52.390;6.136;2023-10-31T14:06:23;2.55;;;0.20;;
37201;SDS011;37799;52.390;6.136;2023-10-31T14:08:54;0.88;;;0.20;;
37201;SDS011;37799;52.390;6.136;2023-10-31T14:11:20;1.08;;;0.10;;
37201;SDS011;37799;52.390;6.136;2023-10-31T14:13:45;1.30;;;0.10;;
37201;SDS011;37799;52.390;6.136;2023-10-31T14:16:10;1.48;;;0.15;;
37201;SDS011;37799;52.390;6.136;2023-10-31T14:18:37;1.33;;;0.20;;
37201;SDS011;37799;52.390;6.136;2023-10-31T14:21:02;3.97;;;0.30;;
37201;SDS011;37799;52.390;6.136;2023-10-31T14:23:28;1.70;;;0.20;;
37201;SDS011;37799;52.390;6.136;2023-10-31T14:25:53;1.08;;;0.25;;
37201;SDS011;37799;52.390;6.136;2023-10-31T14:28:19;1.50;;;0.10;;
37201;SDS011;37799;52.390;6.136;2023-10-31T14:30:44;2.58;;;0.22;;
37201;SDS011;37799;52.390;6.136;2023-10-31T14:33:09;0.63;;;0.10;;
37201;SDS011;37799;52.390;6.136;2023-10-31T14:35:35;2.25;;;0.20;;
37201;SDS011;37799;52.390;6.136;2023-10-31T14:38:00;2.22;;;0.30;;
37201;SDS011;37799;52.390;6.136;2023-10-31T14:40:25;2.88;;;0.25;;
37201;SDS011;37799;52.390;6.136;2023-10-31T14:42:51;1.35;;;0.30;;
37201;SDS011;37799;52.390;6.136;2023-10-31T14:45:16;1.38;;;0.30;;